createdAt,value
2019-03-01T00:01:24.103Z,169.07
2019-03-01T00:03:57.219Z,168.33
2019-03-01T00:06:37.074Z,185.07
2019-03-01T00:10:00.451Z,203.67
2019-03-01T00:13:02.077Z,219.10
2019-03-01T00:16:08.615Z,226.77
2019-03-01T00:19:01.017Z,247.53
2019-03-01T00:22:20.624Z,259.07
2019-03-01T00:25:30.515Z,283.93
2019-03-01T00:28:43.164Z,277.90
2019-03-01T00:31:50.346Z,291.37
2019-03-01T00:35:11.676Z,339.07
2019-03-01T00:38:04.108Z,364.87
2019-03-01T00:41:20.018Z,393.40
2019-03-01T00:44:30.882Z,402.57
2019-03-01T00:47:00.127Z,424.93
2019-03-01T00:49:30.907Z,412.37
2019-03-01T00:52:00.333Z,434.60
2019-03-01T00:54:29.514Z,375.33
2019-03-01T00:56:58.691Z,328.57
2019-03-01T00:59:27.870Z,310.37
2019-03-01T01:01:57.499Z,304.07
2019-03-01T01:04:27.197Z,384.70
2019-03-01T01:06:56.400Z,418.87
2019-03-01T01:09:25.515Z,420.37
2019-03-01T01:11:54.700Z,437.63
2019-03-01T01:14:23.841Z,462.40
2019-03-01T01:16:52.990Z,405.97
2019-03-01T01:19:22.120Z,287.93
2019-03-01T01:21:51.307Z,212.43
2019-03-01T01:24:20.516Z,160.23
2019-03-01T01:26:49.610Z,185.17
2019-03-01T01:29:21.317Z,201.93
2019-03-01T01:31:51.337Z,161.93
2019-03-01T01:34:21.899Z,161.83
2019-03-01T01:36:53.022Z,159.20
2019-03-01T01:39:23.170Z,165.07
2019-03-01T01:41:52.525Z,122.27
2019-03-01T01:44:21.636Z,127.70
2019-03-01T01:46:55.643Z,116.70
2019-03-01T01:49:24.748Z,97.03
2019-03-01T01:51:53.972Z,146.13
2019-03-01T01:54:25.293Z,159.97
2019-03-01T01:56:54.398Z,202.83
2019-03-01T01:59:24.810Z,220.67
2019-03-01T02:01:54.037Z,265.00
2019-03-01T02:04:23.185Z,272.47
2019-03-01T02:06:52.289Z,240.30
2019-03-01T02:09:26.490Z,235.83
2019-03-01T02:11:56.218Z,231.47
2019-03-01T02:14:25.447Z,310.07
2019-03-01T02:16:54.593Z,361.97
2019-03-01T02:19:23.763Z,415.13
2019-03-01T02:21:52.939Z,455.33
2019-03-01T02:24:22.115Z,442.40
2019-03-01T02:26:51.345Z,486.77
2019-03-01T02:29:20.829Z,419.77
2019-03-01T02:31:55.617Z,318.50
2019-03-01T02:34:24.759Z,391.70
2019-03-01T02:36:53.920Z,495.33
2019-03-01T02:39:23.172Z,493.67
2019-03-01T02:41:52.330Z,539.43
2019-03-01T02:44:21.470Z,553.73
2019-03-01T02:46:50.977Z,543.57
2019-03-01T02:49:20.095Z,535.03
2019-03-01T02:51:49.448Z,491.93
2019-03-01T02:54:18.681Z,462.67
2019-03-01T02:56:47.806Z,573.53
2019-03-01T02:59:17.001Z,600.57
2019-03-01T03:01:46.151Z,612.10
2019-03-01T03:04:15.359Z,572.30
2019-03-01T03:06:59.099Z,549.50
2019-03-01T03:09:28.300Z,567.63
2019-03-01T03:11:57.467Z,585.30
2019-03-01T03:14:26.619Z,504.43
2019-03-01T03:16:55.758Z,520.83
2019-03-01T03:19:24.941Z,442.70
2019-03-01T03:21:54.214Z,445.53
2019-03-01T03:24:23.361Z,481.87
2019-03-01T03:26:52.492Z,408.47
2019-03-01T03:29:21.643Z,441.53
2019-03-01T03:31:50.911Z,461.33
2019-03-01T03:34:20.098Z,476.13
2019-03-01T03:36:57.531Z,438.97
2019-03-01T03:39:27.085Z,435.03
2019-03-01T03:41:56.606Z,434.77
2019-03-01T03:44:25.804Z,415.77
2019-03-01T03:46:55.163Z,431.83
2019-03-01T03:49:24.568Z,426.83
2019-03-01T03:51:55.696Z,431.07
2019-03-01T03:54:26.134Z,400.10
2019-03-01T03:56:55.297Z,419.03
2019-03-01T03:59:24.466Z,396.97
2019-03-01T04:01:53.574Z,399.40
2019-03-01T04:04:22.723Z,411.53
2019-03-01T04:06:51.897Z,427.60
2019-03-01T04:09:21.013Z,412.03
2019-03-01T04:11:50.135Z,441.03
2019-03-01T04:14:19.356Z,446.40
2019-03-01T04:16:49.360Z,448.03
2019-03-01T04:19:18.519Z,485.87
2019-03-01T04:21:47.700Z,585.60
2019-03-01T04:24:18.105Z,590.83
2019-03-01T04:26:47.503Z,632.13
2019-03-01T04:29:18.659Z,638.60
2019-03-01T04:31:48.188Z,666.47
2019-03-01T04:34:17.930Z,693.67
2019-03-01T04:36:47.112Z,677.13
2019-03-01T04:39:16.658Z,680.80
2019-03-01T04:41:46.768Z,698.67
2019-03-01T04:44:17.781Z,692.87
2019-03-01T04:46:47.373Z,606.23
2019-03-01T04:49:16.850Z,612.80
2019-03-01T04:51:45.979Z,626.73
2019-03-01T04:54:15.092Z,617.23
2019-03-01T04:56:44.256Z,730.33
2019-03-01T04:59:14.585Z,715.13
2019-03-01T05:01:43.773Z,779.03
2019-03-01T05:04:14.422Z,793.73
2019-03-01T05:06:43.597Z,793.30
2019-03-01T05:09:12.691Z,726.47
2019-03-01T05:11:42.026Z,656.83
2019-03-01T05:14:11.153Z,672.33
2019-03-01T05:16:40.285Z,698.63
2019-03-01T05:19:09.414Z,778.40
2019-03-01T05:21:40.049Z,829.47
2019-03-01T05:24:09.248Z,855.17
2019-03-01T05:26:38.380Z,869.37
2019-03-01T05:29:07.490Z,898.90
2019-03-01T05:31:36.637Z,802.17
2019-03-01T05:34:05.829Z,632.73
2019-03-01T05:36:34.935Z,726.57
2019-03-01T05:39:05.140Z,862.60
2019-03-01T05:41:34.256Z,874.30
2019-03-01T05:44:03.492Z,992.17
2019-03-01T05:46:32.642Z,1008.93
2019-03-01T05:49:01.760Z,992.73
2019-03-01T05:51:30.896Z,717.60
2019-03-01T05:54:00.088Z,835.97
2019-03-01T05:56:29.206Z,727.27
2019-03-01T05:59:13.724Z,903.70
2019-03-01T06:02:17.769Z,927.63
2019-03-01T06:04:54.497Z,921.10
2019-03-01T06:07:53.959Z,908.77
2019-03-01T06:10:57.383Z,879.17
2019-03-01T06:13:55.199Z,747.33
2019-03-01T06:16:49.433Z,912.50
2019-03-01T06:20:02.568Z,876.10
2019-03-01T06:22:52.717Z,880.77
2019-03-01T06:26:01.638Z,796.13
2019-03-01T06:29:26.969Z,762.13
2019-03-01T06:32:36.403Z,700.03
2019-03-01T06:35:46.480Z,670.07
2019-03-01T06:39:06.390Z,445.10
2019-03-01T06:42:03.362Z,366.63
2019-03-01T06:45:11.392Z,273.10
2019-03-01T06:47:51.450Z,330.17
2019-03-01T06:50:26.361Z,318.70
2019-03-01T06:52:55.526Z,270.60
2019-03-01T06:55:40.400Z,234.37
2019-03-01T06:58:24.512Z,197.27
2019-03-01T07:01:15.319Z,185.97
2019-03-01T07:03:46.978Z,181.27
2019-03-01T07:06:16.170Z,141.57
2019-03-01T07:08:45.546Z,134.07
2019-03-01T07:11:14.718Z,120.20
2019-03-01T07:13:43.832Z,78.57
2019-03-01T07:16:13.094Z,76.00
2019-03-01T07:18:42.263Z,145.73
2019-03-01T07:21:14.123Z,139.27
2019-03-01T07:23:43.179Z,177.60
2019-03-01T07:26:12.345Z,164.00
2019-03-01T07:28:41.398Z,194.80
2019-03-01T07:31:10.635Z,184.43
2019-03-01T07:33:39.840Z,188.87
2019-03-01T07:36:08.884Z,180.23
2019-03-01T07:38:38.036Z,154.03
2019-03-01T07:41:07.377Z,178.90
2019-03-01T07:43:36.499Z,120.17
2019-03-01T07:46:05.843Z,76.23
2019-03-01T07:48:35.007Z,92.43
2019-03-01T07:51:04.187Z,100.40
2019-03-01T07:53:41.084Z,112.90
2019-03-01T07:56:08.501Z,98.40
2019-03-01T07:58:39.713Z,106.67
2019-03-01T08:01:08.882Z,86.73
2019-03-01T08:03:38.052Z,71.60
2019-03-01T08:06:07.191Z,67.77
2019-03-01T08:08:39.047Z,65.80
2019-03-01T08:11:07.635Z,71.27
2019-03-01T08:13:38.653Z,56.00
2019-03-01T08:16:08.163Z,61.00
2019-03-01T08:18:40.268Z,44.47
2019-03-01T08:21:10.077Z,49.97
2019-03-01T08:23:40.768Z,49.60
2019-03-01T08:26:09.925Z,40.53
2019-03-01T08:28:39.430Z,34.33
2019-03-01T08:31:09.890Z,36.03
2019-03-01T08:33:43.476Z,34.73
2019-03-01T08:36:14.907Z,33.67
2019-03-01T08:38:44.317Z,34.83
2019-03-01T08:41:16.210Z,27.73
2019-03-01T08:43:48.176Z,24.67
2019-03-01T08:46:18.840Z,28.80
2019-03-01T08:48:49.585Z,31.73
2019-03-01T08:51:22.690Z,29.20
2019-03-01T08:53:54.057Z,34.70
2019-03-01T08:56:26.279Z,34.27
2019-03-01T08:58:55.424Z,28.20
2019-03-01T09:01:24.737Z,32.10
2019-03-01T09:03:57.801Z,32.70
2019-03-01T09:06:26.966Z,22.83
2019-03-01T09:08:56.201Z,30.00
2019-03-01T09:11:25.339Z,21.13
2019-03-01T09:13:54.604Z,15.63
2019-03-01T09:16:23.718Z,27.43
2019-03-01T09:18:52.989Z,27.97
2019-03-01T09:21:22.107Z,34.10
2019-03-01T09:23:54.036Z,27.23
2019-03-01T09:26:22.105Z,24.73
2019-03-01T09:28:51.346Z,29.70
2019-03-01T09:31:20.516Z,28.03
2019-03-01T09:33:49.936Z,25.07
2019-03-01T09:36:25.726Z,28.17
2019-03-01T09:38:54.768Z,32.03
2019-03-01T09:41:23.922Z,34.93
2019-03-01T09:43:53.125Z,27.73
2019-03-01T09:46:24.832Z,33.60
2019-03-01T09:48:53.226Z,26.00
2019-03-01T09:51:22.364Z,35.97
2019-03-01T09:53:51.578Z,27.53
2019-03-01T09:56:20.817Z,28.00
2019-03-01T09:58:50.634Z,24.87
2019-03-01T10:01:20.437Z,27.23
2019-03-01T10:03:50.015Z,23.40
2019-03-01T10:06:23.342Z,22.17
2019-03-01T10:08:53.243Z,25.97
2019-03-01T10:11:22.367Z,14.50
2019-03-01T10:13:53.869Z,13.60
2019-03-01T10:16:23.385Z,18.03
2019-03-01T10:18:52.515Z,13.73
2019-03-01T10:21:21.671Z,17.77
2019-03-01T10:23:50.859Z,10.47
2019-03-01T10:26:20.081Z,10.93
2019-03-01T10:28:50.665Z,11.40
2019-03-01T10:31:19.853Z,9.00
2019-03-01T10:33:48.982Z,12.23
2019-03-01T10:36:18.100Z,13.67
2019-03-01T10:38:47.281Z,11.40
2019-03-01T10:41:16.442Z,14.00
2019-03-01T10:43:45.648Z,5.27
2019-03-01T10:46:15.909Z,6.43
2019-03-01T10:48:45.215Z,8.73
2019-03-01T10:51:14.867Z,6.53
2019-03-01T10:53:44.038Z,8.80
2019-03-01T10:56:13.292Z,7.70
2019-03-01T10:58:42.420Z,8.53
2019-03-01T11:01:11.697Z,4.80
2019-03-01T11:03:40.895Z,9.20
2019-03-01T11:06:10.031Z,7.53
2019-03-01T11:08:39.179Z,5.70
2019-03-01T11:11:08.315Z,5.00
2019-03-01T11:13:37.453Z,3.13
2019-03-01T11:16:07.063Z,5.47
2019-03-01T11:18:36.223Z,6.00
2019-03-01T11:21:05.385Z,5.17
2019-03-01T11:23:35.059Z,3.10
2019-03-01T11:26:05.262Z,4.00
2019-03-01T11:28:36.634Z,4.63
2019-03-01T11:31:06.162Z,8.33
2019-03-01T11:33:35.349Z,6.73
2019-03-01T11:36:04.497Z,2.57
2019-03-01T11:38:33.845Z,3.47
2019-03-01T11:41:03.166Z,5.50
2019-03-01T11:43:32.462Z,5.23
2019-03-01T11:46:02.135Z,3.57
2019-03-01T11:48:31.392Z,2.13
2019-03-01T11:51:00.818Z,4.90
2019-03-01T11:53:31.087Z,2.50
2019-03-01T11:56:00.367Z,2.83
2019-03-01T11:58:32.716Z,7.73
2019-03-01T12:01:01.917Z,4.70
2019-03-01T12:03:31.050Z,3.33
2019-03-01T12:06:00.352Z,2.83
2019-03-01T12:08:29.610Z,3.30
2019-03-01T12:10:58.978Z,3.50
2019-03-01T12:13:28.095Z,3.00
2019-03-01T12:16:00.864Z,5.87
2019-03-01T12:18:34.872Z,6.93
2019-03-01T12:21:05.945Z,5.80
2019-03-01T12:23:35.206Z,5.70
2019-03-01T12:26:04.415Z,2.70
2019-03-01T12:28:35.465Z,3.20
2019-03-01T12:31:04.659Z,2.87
2019-03-01T12:33:33.809Z,1.33
2019-03-01T12:36:03.124Z,3.53
2019-03-01T12:38:35.374Z,3.67
2019-03-01T12:41:04.878Z,2.67
2019-03-01T12:43:34.112Z,7.00
2019-03-01T12:46:06.033Z,2.43
2019-03-01T12:48:35.375Z,5.13
2019-03-01T12:51:07.053Z,2.20
2019-03-01T12:53:36.975Z,3.37
2019-03-01T12:56:07.329Z,2.63
2019-03-01T12:58:37.205Z,3.03
2019-03-01T13:01:08.119Z,2.33
2019-03-01T13:03:43.742Z,3.60
2019-03-01T13:06:11.919Z,2.60
2019-03-01T13:08:41.650Z,4.17
2019-03-01T13:11:12.568Z,5.10
2019-03-01T13:13:42.738Z,4.53
2019-03-01T13:16:13.469Z,2.83
2019-03-01T13:18:47.572Z,3.10
2019-03-01T13:21:16.591Z,2.07
2019-03-01T13:23:47.239Z,2.37
2019-03-01T13:26:18.934Z,4.47
2019-03-01T13:28:48.056Z,1.67
2019-03-01T13:31:17.337Z,1.87
2019-03-01T13:33:46.872Z,1.03
2019-03-01T13:36:15.986Z,3.87
2019-03-01T13:38:45.151Z,1.83
2019-03-01T13:41:14.310Z,1.93
2019-03-01T13:43:43.551Z,1.47
2019-03-01T13:46:12.852Z,1.43
2019-03-01T13:48:41.957Z,1.67
2019-03-01T13:51:13.816Z,3.20
2019-03-01T13:53:48.724Z,1.77
2019-03-01T13:56:12.883Z,2.37
2019-03-01T13:58:42.023Z,2.93
2019-03-01T14:01:11.401Z,2.43
2019-03-01T14:03:40.521Z,1.57
2019-03-01T14:06:09.659Z,3.77
2019-03-01T14:08:38.773Z,3.70
2019-03-01T14:11:08.006Z,3.57
2019-03-01T14:13:37.276Z,2.00
2019-03-01T14:16:06.475Z,7.37
2019-03-01T14:18:36.790Z,6.07
2019-03-01T14:21:08.892Z,2.77
2019-03-01T14:23:38.074Z,6.13
2019-03-01T14:26:07.254Z,6.97
2019-03-01T14:28:38.030Z,3.90
2019-03-01T14:31:07.488Z,2.20
2019-03-01T14:33:37.526Z,5.43
2019-03-01T14:36:06.743Z,8.67
2019-03-01T14:38:35.902Z,3.43
2019-03-01T14:41:05.087Z,21.23
2019-03-01T14:43:34.803Z,25.47
2019-03-01T14:46:04.197Z,5.27
2019-03-01T14:48:33.380Z,4.23
2019-03-01T14:51:02.707Z,4.77
2019-03-01T14:53:34.712Z,11.30
2019-03-01T14:56:10.451Z,2.97
2019-03-01T14:58:44.651Z,4.83
2019-03-01T15:01:19.405Z,3.73
2019-03-01T15:03:49.887Z,6.73
2019-03-01T15:06:20.126Z,1.40
2019-03-01T15:08:49.505Z,4.70
2019-03-01T15:11:20.937Z,2.07
2019-03-01T15:13:51.740Z,5.70
2019-03-01T15:16:21.163Z,3.47
2019-03-01T15:18:50.468Z,4.73
2019-03-01T15:21:19.768Z,6.50
2019-03-01T15:23:49.407Z,4.57
2019-03-01T15:26:18.578Z,3.63
2019-03-01T15:28:55.322Z,5.27
2019-03-01T15:31:23.871Z,4.70
2019-03-01T15:33:53.122Z,6.33
2019-03-01T15:36:22.343Z,8.33
2019-03-01T15:38:51.521Z,10.40
2019-03-01T15:41:23.616Z,4.13
2019-03-01T15:43:53.896Z,6.70
2019-03-01T15:46:23.106Z,6.10
2019-03-01T15:48:52.356Z,5.03
2019-03-01T15:51:21.600Z,4.90
2019-03-01T15:53:50.976Z,6.73
2019-03-01T15:56:22.049Z,5.93
2019-03-01T15:58:51.120Z,6.70
2019-03-01T16:01:20.378Z,6.27
2019-03-01T16:03:49.553Z,4.20
2019-03-01T16:06:22.117Z,8.20
2019-03-01T16:08:49.621Z,5.67
2019-03-01T16:11:18.863Z,5.17
2019-03-01T16:13:49.250Z,4.83
2019-03-01T16:16:18.802Z,7.20
2019-03-01T16:18:48.062Z,6.00
2019-03-01T16:21:19.315Z,6.20
2019-03-01T16:23:51.108Z,6.47
2019-03-01T16:26:29.632Z,6.43
2019-03-01T16:28:54.879Z,4.10
2019-03-01T16:31:24.100Z,6.30
2019-03-01T16:33:53.341Z,4.83
2019-03-01T16:36:30.196Z,5.10
2019-03-01T16:38:59.611Z,4.97
2019-03-01T16:41:28.757Z,5.97
2019-03-01T16:43:58.010Z,9.53
2019-03-01T16:46:28.511Z,6.40
2019-03-01T16:48:58.073Z,5.03
2019-03-01T16:51:27.306Z,6.80
2019-03-01T16:53:56.493Z,5.47
2019-03-01T16:56:26.560Z,9.23
2019-03-01T16:58:56.144Z,6.67
2019-03-01T17:01:26.059Z,6.70
2019-03-01T17:03:56.223Z,6.57
2019-03-01T17:06:28.548Z,7.07
2019-03-01T17:08:58.905Z,5.03
2019-03-01T17:11:28.812Z,6.10
2019-03-01T17:14:02.683Z,7.03
2019-03-01T17:16:31.900Z,6.37
2019-03-01T17:19:01.442Z,9.40
2019-03-01T17:21:39.473Z,6.23
2019-03-01T17:24:23.525Z,5.70
2019-03-01T17:26:54.043Z,3.90
2019-03-01T17:29:23.421Z,9.83
2019-03-01T17:31:52.648Z,5.33
2019-03-01T17:34:25.422Z,6.23
2019-03-01T17:36:53.528Z,10.67
2019-03-01T17:39:25.243Z,8.63
2019-03-01T17:41:54.457Z,17.33
2019-03-01T17:44:23.906Z,16.93
2019-03-01T17:46:53.172Z,8.67
2019-03-01T17:49:22.373Z,6.63
2019-03-01T17:51:53.438Z,7.10
2019-03-01T17:54:25.865Z,12.27
2019-03-01T17:56:57.179Z,8.07
2019-03-01T17:59:26.177Z,12.30
2019-03-01T18:01:55.342Z,13.00
2019-03-01T18:04:25.128Z,10.20
2019-03-01T18:06:54.426Z,9.17
2019-03-01T18:09:23.857Z,12.23
2019-03-01T18:11:53.150Z,11.57
2019-03-01T18:14:22.390Z,12.17
2019-03-01T18:16:51.658Z,5.00
2019-03-01T18:19:23.675Z,6.60
2019-03-01T18:21:53.139Z,6.90
2019-03-01T18:24:22.566Z,7.40
2019-03-01T18:26:51.872Z,10.43
2019-03-01T18:29:21.008Z,14.17
2019-03-01T18:31:51.878Z,8.47
2019-03-01T18:34:22.589Z,10.50
2019-03-01T18:36:58.612Z,11.23
2019-03-01T18:39:28.468Z,6.23
2019-03-01T18:41:59.354Z,13.33
2019-03-01T18:44:28.531Z,10.17
2019-03-01T18:46:57.842Z,10.13
2019-03-01T18:49:27.097Z,8.23
2019-03-01T18:51:56.332Z,11.60
2019-03-01T18:54:25.538Z,10.10
2019-03-01T18:56:54.718Z,15.17
2019-03-01T18:59:24.849Z,13.23
2019-03-01T19:01:55.035Z,13.20
2019-03-01T19:04:29.745Z,7.23
2019-03-01T19:06:55.204Z,16.90
2019-03-01T19:09:24.513Z,11.33
2019-03-01T19:11:54.120Z,10.87
2019-03-01T19:14:23.641Z,15.00
2019-03-01T19:16:52.807Z,17.07
2019-03-01T19:19:24.461Z,11.20
2019-03-01T19:21:53.521Z,9.40
2019-03-01T19:24:25.580Z,11.60
2019-03-01T19:26:54.819Z,15.73
2019-03-01T19:29:24.138Z,14.53
2019-03-01T19:31:54.638Z,17.07
2019-03-01T19:34:23.891Z,13.70
2019-03-01T19:36:53.115Z,10.00
2019-03-01T19:39:22.980Z,13.17
2019-03-01T19:41:54.637Z,12.47
2019-03-01T19:44:25.662Z,15.97
2019-03-01T19:46:54.252Z,16.93
2019-03-01T19:49:23.506Z,19.43
2019-03-01T19:51:53.367Z,19.30
2019-03-01T19:54:25.223Z,11.90
2019-03-01T19:56:57.754Z,12.07
2019-03-01T19:59:27.181Z,8.27
2019-03-01T20:01:56.408Z,11.70
2019-03-01T20:04:25.583Z,18.40
2019-03-01T20:06:54.807Z,17.10
2019-03-01T20:09:23.865Z,11.50
2019-03-01T20:11:54.274Z,18.07
2019-03-01T20:14:23.506Z,13.37
2019-03-01T20:16:54.886Z,18.00
2019-03-01T20:19:23.593Z,15.20
2019-03-01T20:21:52.804Z,17.20
2019-03-01T20:24:21.955Z,17.83
2019-03-01T20:26:52.212Z,16.83
2019-03-01T20:29:21.749Z,21.10
2019-03-01T20:31:53.169Z,19.80
2019-03-01T20:34:22.690Z,23.87
2019-03-01T20:36:52.917Z,15.20
2019-03-01T20:39:24.306Z,17.93
2019-03-01T20:41:53.555Z,23.00
2019-03-01T20:44:22.757Z,13.80
2019-03-01T20:46:53.905Z,12.97
2019-03-01T20:49:23.018Z,13.70
2019-03-01T20:51:52.430Z,25.07
2019-03-01T20:54:21.882Z,16.60
2019-03-01T20:56:52.771Z,16.47
2019-03-01T20:59:22.063Z,25.03
2019-03-01T21:01:51.307Z,17.40
2019-03-01T21:04:20.563Z,21.27
2019-03-01T21:06:50.013Z,23.90
2019-03-01T21:09:25.889Z,19.33
2019-03-01T21:12:14.010Z,21.97
2019-03-01T21:14:43.389Z,15.80
2019-03-01T21:17:12.598Z,20.07
2019-03-01T21:19:43.756Z,17.43
2019-03-01T21:22:13.074Z,15.30
2019-03-01T21:24:42.227Z,15.00
2019-03-01T21:27:11.413Z,15.17
2019-03-01T21:29:40.695Z,13.53
2019-03-01T21:32:11.774Z,16.73
2019-03-01T21:34:41.475Z,19.83
2019-03-01T21:37:10.991Z,22.73
2019-03-01T21:39:49.427Z,23.53
2019-03-01T21:42:57.263Z,23.87
2019-03-01T21:45:25.160Z,28.20
2019-03-01T21:47:54.443Z,22.17
2019-03-01T21:50:23.862Z,24.50
2019-03-01T21:52:54.824Z,25.67
2019-03-01T21:55:24.956Z,24.37
2019-03-01T21:57:55.246Z,33.83
2019-03-01T22:00:25.402Z,29.87
2019-03-01T22:02:55.639Z,26.50
2019-03-01T22:05:24.928Z,30.77
2019-03-01T22:07:54.279Z,25.23
2019-03-01T22:10:23.547Z,18.47
2019-03-01T22:12:52.706Z,24.70
2019-03-01T22:15:25.641Z,23.13
2019-03-01T22:17:54.672Z,23.20
2019-03-01T22:20:26.842Z,30.80
2019-03-01T22:22:56.058Z,28.13
2019-03-01T22:25:25.261Z,25.43
2019-03-01T22:27:57.718Z,21.17
2019-03-01T22:30:31.190Z,23.77
2019-03-01T22:33:00.435Z,24.87
2019-03-01T22:35:29.731Z,26.37
2019-03-01T22:38:00.885Z,28.17
2019-03-01T22:40:29.883Z,28.27
2019-03-01T22:42:59.201Z,28.67
2019-03-01T22:45:28.383Z,27.53
2019-03-01T22:47:57.547Z,27.63
2019-03-01T22:50:26.699Z,29.87
2019-03-01T22:52:55.936Z,33.07
2019-03-01T22:55:25.079Z,49.13
2019-03-01T22:57:54.297Z,53.20
2019-03-01T23:01:10.647Z,42.73
2019-03-01T23:03:40.136Z,43.33
2019-03-01T23:06:11.690Z,43.73
2019-03-01T23:08:40.269Z,49.60
2019-03-01T23:11:10.032Z,48.37
2019-03-01T23:13:39.193Z,58.03
2019-03-01T23:16:08.916Z,42.33
2019-03-01T23:18:40.531Z,41.57
2019-03-01T23:21:09.239Z,44.93
2019-03-01T23:23:38.388Z,49.33
2019-03-01T23:26:07.782Z,45.83
2019-03-01T23:28:43.730Z,42.53
2019-03-01T23:31:13.451Z,42.70
2019-03-01T23:33:42.890Z,35.60
2019-03-01T23:36:12.859Z,35.37
2019-03-01T23:38:42.060Z,35.60
2019-03-01T23:41:13.303Z,34.83
2019-03-01T23:43:42.585Z,38.77
2019-03-01T23:46:11.845Z,34.17
2019-03-01T23:48:41.009Z,43.03
2019-03-01T23:51:11.460Z,43.40
2019-03-01T23:53:40.787Z,39.57
2019-03-01T23:56:09.999Z,44.43
2019-03-01T23:58:39.287Z,46.20
